Time;durP1;ratioP1;P1;durP2;ratioP2;P2;SDS_P1;SDS_P2;PMS_P1;PMS_P2;Temp;Humidity;BMP_temperature;BMP_pressure;BME280_temperature;BME280_humidity;BME280_pressure;Samples;Min_cycle;Max_cycle;Signal;HPM_P1;HPM_P2
2021/06/11 00:01:07;;;;;;;;;;;;;;;18.67;70.25;99550.69;1763340;80;20089;-59
2021/06/11 00:03:35;;;;;;;;;;;;;;;18.67;70.26;99558.03;1763461;80;20094;-59
2021/06/11 00:06:02;;;;;;;;;;;;;;;18.67;70.26;99558.83;1763207;80;21765;-60
2021/06/11 00:08:30;;;;;;;;;;;;;;;18.67;70.29;99558.83;1763410;80;20144;-59
2021/06/11 00:10:57;;;;;;;;;;;;;;;18.67;70.28;99556.11;1753893;80;20093;-59
2021/06/11 00:13:24;;;;;;;;;;;;;;;18.67;70.26;99557.47;1763240;80;20113;-58
2021/06/11 00:15:50;;;;;;;;;;;;;;;18.68;70.28;99559.09;1742344;81;20420;-59
2021/06/11 00:18:17;;;;;;;;;;;;;;;18.68;70.28;99557.73;1763505;80;21115;-59
2021/06/11 00:20:44;;;;;;;;;;;;;;;18.68;70.25;99556.38;1763484;80;20462;-60
2021/06/11 00:23:11;;;;;;;;;;;;;;;18.68;70.29;99559.63;1760596;80;20120;-58
2021/06/11 00:25:37;;;;;;;;;;;;;;;18.67;70.33;99565.61;1763133;80;20082;-58
2021/06/11 00:28:05;;;;;;;;;;;;;;;18.67;70.35;99564.81;1765567;80;20081;-58
2021/06/11 00:30:31;;;;;;;;;;;;;;;18.69;70.34;99559.89;1751923;81;21177;-57
2021/06/11 00:32:58;;;;;;;;;;;;;;;18.70;70.33;99565.59;1773242;79;20187;-58
2021/06/11 00:35:25;;;;;;;;;;;;;;;18.70;70.32;99562.88;1773588;79;20085;-59
2021/06/11 00:37:52;;;;;;;;;;;;;;;18.71;70.33;99559.04;1773795;79;20124;-58
2021/06/11 00:40:19;;;;;;;;;;;;;;;18.72;70.30;99562.81;1773734;79;20143;-58
2021/06/11 00:42:45;;;;;;;;;;;;;;;18.71;70.27;99559.87;1773408;79;21153;-59
2021/06/11 00:45:12;;;;;;;;;;;;;;;18.72;70.31;99551.16;1773482;79;20244;-60
2021/06/11 00:47:39;;;;;;;;;;;;;;;18.72;70.31;99557.95;1752512;80;20120;-60
2021/06/11 00:50:06;;;;;;;;;;;;;;;18.72;70.28;99555.23;1773351;79;20161;-59
2021/06/11 00:52:34;;;;;;;;;;;;;;;18.72;70.34;99552.52;1765996;79;20423;-61
2021/06/11 00:55:00;;;;;;;;;;;;;;;18.73;70.32;99560.93;1773617;79;21061;-59
2021/06/11 00:57:27;;;;;;;;;;;;;;;18.71;70.28;99551.72;1773558;79;20121;-59
2021/06/11 00:59:54;;;;;;;;;;;;;;;18.70;70.30;99553.38;1773496;79;20137;-59
2021/06/11 01:02:22;;;;;;;;;;;;;;;18.71;70.30;99552.25;1748567;81;20081;-60
2021/06/11 01:04:49;;;;;;;;;;;;;;;18.69;70.25;99550.39;1770489;79;20494;-59
2021/06/11 01:07:17;;;;;;;;;;;;;;;18.66;70.34;99554.48;1770983;79;21113;-60
2021/06/11 01:09:43;;;;;;;;;;;;;;;18.65;70.43;99558.86;1765104;79;20866;-59
2021/06/11 01:12:10;;;;;;;;;;;;;;;18.65;70.46;99559.65;1773530;79;20431;-59
2021/06/11 01:14:37;;;;;;;;;;;;;;;18.65;70.48;99556.94;1773678;79;20487;-59
2021/06/11 01:17:04;;;;;;;;;;;;;;;18.66;70.45;99553.13;1752318;81;20069;-60
2021/06/11 01:19:34;;;;;;;;;;;;;;;18.66;70.50;99556.41;1773759;79;21043;-59
2021/06/11 01:22:23;;;;;;;;;;;;;;;18.65;70.46;99561.01;1772938;79;20092;-60
2021/06/11 01:25:05;;;;;;;;;;;;;;;18.65;70.49;99558.86;1773470;79;20085;-59
2021/06/11 01:27:32;;;;;;;;;;;;;;;18.65;70.50;99562.36;1770790;78;20120;-60
2021/06/11 01:30:05;;;;;;;;;;;;;;;18.65;70.51;99556.14;1812250;78;20149;-59
2021/06/11 01:32:29;;;;;;;;;;;;;;;18.64;70.57;99558.05;1812139;78;21119;-59
2021/06/11 01:34:56;;;;;;;;;;;;;;;18.64;70.60;99561.30;1812488;78;20126;-59
2021/06/11 01:37:24;;;;;;;;;;;;;;;18.63;70.63;99559.70;1782211;79;20448;-59
2021/06/11 01:39:55;;;;;;;;;;;;;;;18.63;70.73;99563.78;1809762;78;20195;-59
2021/06/11 01:42:22;;;;;;;;;;;;;;;18.62;70.81;99567.02;1812498;78;20125;-59
2021/06/11 01:44:48;;;;;;;;;;;;;;;18.61;70.86;99564.07;1812467;78;21220;-58
2021/06/11 01:47:15;;;;;;;;;;;;;;;18.61;70.89;99565.95;1789949;79;20094;-58
2021/06/11 01:49:42;;;;;;;;;;;;;;;18.59;70.92;99563.53;1812064;78;20094;-59
2021/06/11 01:52:09;;;;;;;;;;;;;;;18.59;70.99;99570.32;1812235;78;20218;-59
2021/06/11 01:54:36;;;;;;;;;;;;;;;18.58;71.01;99566.55;1809359;78;20114;-59
2021/06/11 01:57:04;;;;;;;;;;;;;;;18.58;71.02;99570.61;1812515;78;21119;-59
2021/06/11 01:59:30;;;;;;;;;;;;;;;18.56;71.10;99574.45;1812349;78;20158;-59
2021/06/11 02:01:57;;;;;;;;;;;;;;;18.58;71.10;99573.33;1790029;78;20113;-59
2021/06/11 02:04:24;;;;;;;;;;;;;;;18.59;71.03;99576.30;1812448;78;20078;-59
2021/06/11 02:06:51;;;;;;;;;;;;;;;18.59;70.96;99573.59;1753499;78;20610;-61
2021/06/11 02:09:18;;;;;;;;;;;;;;;18.59;70.91;99576.30;1808745;78;21105;-59
2021/06/11 02:11:45;;;;;;;;;;;;;;;18.59;70.92;99573.59;1784310;79;20090;-59
2021/06/11 02:14:13;;;;;;;;;;;;;;;18.59;70.87;99569.52;1812226;78;20125;-60
2021/06/11 02:16:39;;;;;;;;;;;;;;;18.56;70.90;99571.73;1812382;78;20452;-58
2021/06/11 02:19:06;;;;;;;;;;;;;;;18.55;70.97;99572.82;1812399;78;20079;-60
2021/06/11 02:21:33;;;;;;;;;;;;;;;18.55;70.93;99574.17;1792861;78;21090;-59
2021/06/11 02:24:00;;;;;;;;;;;;;;;18.55;70.93;99576.06;1811130;78;20610;-60
2021/06/11 02:26:28;;;;;;;;;;;;;;;18.56;70.85;99577.16;1780771;79;20090;-59
2021/06/11 02:28:54;;;;;;;;;;;;;;;18.55;70.86;99576.89;1812291;78;20428;-58
2021/06/11 02:31:21;;;;;;;;;;;;;;;18.55;70.86;99579.61;1812801;78;20082;-58
2021/06/11 02:33:48;;;;;;;;;;;;;;;18.56;70.84;99577.69;1804472;78;21199;-56
2021/06/11 02:36:15;;;;;;;;;;;;;;;18.56;70.84;99579.88;1789899;78;20278;-55
2021/06/11 02:38:42;;;;;;;;;;;;;;;18.56;70.92;99576.33;1780860;78;20159;-58
2021/06/11 02:41:10;;;;;;;;;;;;;;;18.57;70.95;99579.31;1803800;78;20129;-57
2021/06/11 02:43:39;;;;;;;;;;;;;;;18.59;71.04;99580.38;1812502;78;20146;-58
2021/06/11 02:46:12;;;;;;;;;;;;;;;18.63;70.99;99584.13;1790434;78;21145;-59
2021/06/11 02:48:42;;;;;;;;;;;;;;;18.64;71.02;99580.30;1812409;78;20259;-58
2021/06/11 02:51:12;;;;;;;;;;;;;;;18.66;71.00;99578.92;1812568;78;20102;-57
2021/06/11 02:53:40;;;;;;;;;;;;;;;18.68;71.00;99582.17;1808884;78;20201;-58
2021/06/11 02:56:14;;;;;;;;;;;;;;;18.67;71.06;99582.45;1778180;78;20081;-58
2021/06/11 02:58:58;;;;;;;;;;;;;;;18.68;71.09;99574.02;1804315;78;21184;-58
2021/06/11 03:01:24;;;;;;;;;;;;;;;18.70;71.11;99575.09;1812291;78;20161;-58
2021/06/11 03:03:51;;;;;;;;;;;;;;;18.71;71.12;99574.80;1812492;78;20094;-58
2021/06/11 03:06:19;;;;;;;;;;;;;;;18.70;71.17;99577.80;1812143;77;20101;-61
2021/06/11 03:08:47;;;;;;;;;;;;;;;18.71;71.24;99578.87;1805294;78;20444;-59
2021/06/11 03:11:18;;;;;;;;;;;;;;;18.74;71.30;99591.03;1788675;78;21775;-59
2021/06/11 03:13:44;;;;;;;;;;;;;;;18.75;71.34;99583.16;1812075;78;20086;-59
2021/06/11 03:16:11;;;;;;;;;;;;;;;18.77;71.30;99586.41;1789219;78;20174;-59
2021/06/11 03:18:42;;;;;;;;;;;;;;;18.79;71.30;99595.61;1811460;78;20533;-58
2021/06/11 03:21:21;;;;;;;;;;;;;;;18.79;71.23;99588.27;1812559;78;20503;-59
2021/06/11 03:23:58;;;;;;;;;;;;;;;18.79;71.27;99595.05;1807617;78;21098;-58
2021/06/11 03:26:27;;;;;;;;;;;;;;;18.79;71.29;99593.69;1805218;78;20084;-59
2021/06/11 03:28:55;;;;;;;;;;;;;;;18.79;71.30;99595.61;1811719;78;20423;-59
2021/06/11 03:31:23;;;;;;;;;;;;;;;18.80;71.33;99597.20;1811302;78;20113;-58
2021/06/11 03:33:52;;;;;;;;;;;;;;;18.80;71.37;99595.84;1812053;78;20139;-59
2021/06/11 03:36:31;;;;;;;;;;;;;;;18.79;71.40;99600.48;1815287;77;21101;-58
2021/06/11 03:39:04;;;;;;;;;;;;;;;18.80;71.39;99593.12;1788813;79;20091;-57
2021/06/11 03:41:33;;;;;;;;;;;;;;;18.80;71.41;99599.39;1810355;78;20094;-59
2021/06/11 03:44:02;;;;;;;;;;;;;;;18.79;71.43;99599.68;1809098;78;20097;-58
2021/06/11 03:46:31;;;;;;;;;;;;;;;18.77;71.52;99595.91;1783932;79;20168;-59
2021/06/11 03:48:58;;;;;;;;;;;;;;;18.77;71.54;99606.77;1811728;78;21103;-58
2021/06/11 03:51:26;;;;;;;;;;;;;;;18.78;71.64;99606.20;1812521;78;20082;-57
2021/06/11 03:53:53;;;;;;;;;;;;;;;18.78;71.67;99609.71;1812003;78;20097;-58
2021/06/11 03:56:20;;;;;;;;;;;;;;;18.78;71.67;99608.36;1815621;77;20149;-57
2021/06/11 03:58:47;;;;;;;;;;;;;;;18.80;71.70;99609.42;1811992;78;20147;-57
2021/06/11 04:01:24;;;;;;;;;;;;;;;18.80;71.73;99611.61;1812298;78;21199;-58
2021/06/11 04:03:51;;;;;;;;;;;;;;;18.81;71.71;99613.76;1808501;78;20141;-58
2021/06/11 04:06:20;;;;;;;;;;;;;;;18.83;71.74;99621.05;1811181;78;20455;-58
2021/06/11 04:08:48;;;;;;;;;;;;;;;18.82;71.68;99617.55;1810823;77;20126;-58
2021/06/11 04:11:18;;;;;;;;;;;;;;;18.81;71.67;99621.91;1810725;78;20141;-57
2021/06/11 04:13:52;;;;;;;;;;;;;;;18.77;71.67;99620.34;1811137;78;21954;-57
2021/06/11 04:16:25;;;;;;;;;;;;;;;18.75;71.75;99623.88;1811061;77;20710;-59
2021/06/11 04:18:52;;;;;;;;;;;;;;;18.73;71.79;99626.08;1802273;78;20169;-58
2021/06/11 04:21:21;;;;;;;;;;;;;;;18.69;71.86;99631.27;1812354;78;20442;-58
2021/06/11 04:23:52;;;;;;;;;;;;;;;18.69;71.96;99638.05;1811589;78;20613;-59
2021/06/11 04:26:21;;;;;;;;;;;;;;;18.67;72.03;99637.55;1812290;77;21112;-57
2021/06/11 04:28:48;;;;;;;;;;;;;;;18.66;72.20;99635.92;1813631;78;20143;-58
2021/06/11 04:31:15;;;;;;;;;;;;;;;18.69;72.32;99642.69;1823023;77;20167;-58
2021/06/11 04:33:41;;;;;;;;;;;;;;;18.68;72.37;99641.88;1791156;78;20157;-59
2021/06/11 04:36:09;;;;;;;;;;;;;;;18.67;72.40;99644.89;1790568;77;20121;-59
2021/06/11 04:38:56;;;;;;;;;;;;;;;18.68;72.48;99646.48;1822143;77;21127;-59
2021/06/11 04:41:24;;;;;;;;;;;;;;;18.68;72.58;99651.39;1821179;77;20132;-56
2021/06/11 04:43:51;;;;;;;;;;;;;;;18.69;72.80;99650.27;1823092;77;20142;-59
2021/06/11 04:46:17;;;;;;;;;;;;;;;18.71;72.96;99652.16;1823033;77;20125;-58
2021/06/11 04:48:45;;;;;;;;;;;;;;;18.73;73.05;99658.66;1823346;77;20450;-58
2021/06/11 04:51:11;;;;;;;;;;;;;;;18.73;73.09;99654.02;1822704;77;21143;-58
2021/06/11 04:53:38;;;;;;;;;;;;;;;18.74;73.13;99657.01;1823372;77;20491;-58
2021/06/11 04:56:07;;;;;;;;;;;;;;;18.77;73.28;99651.55;1790948;78;20169;-57
2021/06/11 04:58:37;;;;;;;;;;;;;;;18.78;73.34;99646.92;1821693;77;20150;-57
2021/06/11 05:01:05;;;;;;;;;;;;;;;18.78;73.47;99653.16;1822466;77;20093;-58
2021/06/11 05:03:32;;;;;;;;;;;;;;;18.81;73.52;99650.41;1822178;77;21137;-58
2021/06/11 05:06:01;;;;;;;;;;;;;;;18.82;73.61;99653.39;1826640;77;20110;-58
2021/06/11 05:08:28;;;;;;;;;;;;;;;18.83;73.68;99661.25;1819008;77;20121;-59
2021/06/11 05:10:55;;;;;;;;;;;;;;;18.85;73.77;99652.25;1820990;77;20122;-58
2021/06/11 05:13:22;;;;;;;;;;;;;;;18.86;73.73;99652.55;1822912;77;20162;-59
2021/06/11 05:15:49;;;;;;;;;;;;;;;18.86;73.68;99655.80;1823182;77;21119;-58
2021/06/11 05:18:15;;;;;;;;;;;;;;;18.82;73.85;99651.48;1822767;77;20654;-58
2021/06/11 05:20:42;;;;;;;;;;;;;;;18.82;74.01;99656.91;1826057;77;20114;-57
2021/06/11 05:23:09;;;;;;;;;;;;;;;18.82;74.12;99662.34;1823551;77;20688;-58
2021/06/11 05:25:36;;;;;;;;;;;;;;;18.82;74.26;99657.47;1823947;77;20117;-58
2021/06/11 05:28:03;;;;;;;;;;;;;;;18.82;74.33;99648.77;1823766;77;21882;-59
2021/06/11 05:30:31;;;;;;;;;;;;;;;18.83;74.35;99651.75;1823316;77;20082;-58
2021/06/11 05:32:58;;;;;;;;;;;;;;;18.83;74.37;99653.63;1821655;78;20089;-58
2021/06/11 05:35:25;;;;;;;;;;;;;;;18.82;74.25;99652.04;1823379;77;20111;-57
2021/06/11 05:37:52;;;;;;;;;;;;;;;18.79;74.09;99658.84;1823471;77;20494;-58
2021/06/11 05:40:18;;;;;;;;;;;;;;;18.78;74.06;99655.87;1790029;78;21112;-59
2021/06/11 05:42:45;;;;;;;;;;;;;;;18.77;74.00;99658.87;1823581;77;20424;-59
2021/06/11 05:45:12;;;;;;;;;;;;;;;18.73;74.14;99655.94;1823331;77;20110;-59
2021/06/11 05:47:39;;;;;;;;;;;;;;;18.72;74.23;99654.31;1821988;77;20443;-63
2021/06/11 05:50:07;;;;;;;;;;;;;;;18.68;74.07;99655.45;1823478;77;20085;-63
2021/06/11 05:52:34;;;;;;;;;;;;;;;18.65;74.19;99656.01;1823817;77;21053;-62
2021/06/11 05:55:01;;;;;;;;;;;;;;;18.67;74.44;99655.75;1822796;77;20705;-63
2021/06/11 05:57:27;;;;;;;;;;;;;;;18.71;74.64;99662.19;1791988;78;20077;-62
2021/06/11 05:59:55;;;;;;;;;;;;;;;18.78;74.38;99661.86;1823195;77;20430;-63
2021/06/11 06:02:22;;;;;;;;;;;;;;;18.84;74.46;99676.42;1820619;77;20108;-64
2021/06/11 06:04:49;;;;;;;;;;;;;;;18.91;74.53;99673.40;1823591;77;21893;-62
2021/06/11 06:07:16;;;;;;;;;;;;;;;18.98;74.36;99677.93;1823851;77;20089;-63
2021/06/11 06:09:42;;;;;;;;;;;;;;;19.05;74.14;99677.55;1823703;77;20415;-64
2021/06/11 06:12:10;;;;;;;;;;;;;;;19.10;73.84;99683.50;1788676;78;20131;-63
2021/06/11 06:14:37;;;;;;;;;;;;;;;19.11;73.66;99682.38;1823604;77;20077;-63
2021/06/11 06:17:04;;;;;;;;;;;;;;;19.14;73.66;99680.44;1823238;78;21082;-63
2021/06/11 06:19:32;;;;;;;;;;;;;;;19.19;73.58;99674.95;1823252;78;20113;-63
2021/06/11 06:21:58;;;;;;;;;;;;;;;19.24;73.46;99681.13;1823277;78;20142;-62
2021/06/11 06:24:25;;;;;;;;;;;;;;;19.32;73.07;99677.50;1823658;77;20102;-62
2021/06/11 06:26:52;;;;;;;;;;;;;;;19.35;72.91;99678.27;1823736;77;20138;-64
2021/06/11 06:29:18;;;;;;;;;;;;;;;19.45;72.75;99680.84;1823130;77;21121;-62
2021/06/11 06:31:46;;;;;;;;;;;;;;;19.59;72.58;99678.18;1823766;77;20093;-63
2021/06/11 06:34:14;;;;;;;;;;;;;;;19.75;72.25;99678.19;1823452;77;20095;-63
2021/06/11 06:36:41;;;;;;;;;;;;;;;19.89;71.71;99678.30;1823258;77;20098;-64
2021/06/11 06:39:08;;;;;;;;;;;;;;;20.03;71.29;99676.96;1823863;77;20073;-63
2021/06/11 06:41:35;;;;;;;;;;;;;;;20.15;70.92;99677.84;1823189;78;21788;-64
2021/06/11 06:44:02;;;;;;;;;;;;;;;20.25;70.59;99676.31;1823299;78;20141;-64
2021/06/11 06:46:30;;;;;;;;;;;;;;;20.36;70.53;99683.75;1823371;78;20189;-64
2021/06/11 06:48:57;;;;;;;;;;;;;;;20.43;70.34;99673.81;1821368;78;20086;-63
2021/06/11 06:51:26;;;;;;;;;;;;;;;20.46;69.83;99677.30;1823380;78;20118;-63
2021/06/11 06:53:54;;;;;;;;;;;;;;;20.49;69.78;99672.61;1823646;78;21135;-64
2021/06/11 06:56:24;;;;;;;;;;;;;;;20.54;69.38;99670.34;1823285;78;20478;-63
2021/06/11 06:58:50;;;;;;;;;;;;;;;20.54;69.23;99668.45;1823271;78;20176;-64
2021/06/11 07:01:18;;;;;;;;;;;;;;;20.53;68.82;99672.83;1823515;77;20126;-64
2021/06/11 07:03:45;;;;;;;;;;;;;;;20.51;68.98;99670.95;1824066;77;20106;-63
2021/06/11 07:06:13;;;;;;;;;;;;;;;20.50;69.07;99675.59;1823500;77;21213;-63
2021/06/11 07:08:41;;;;;;;;;;;;;;;20.51;69.28;99677.22;1823635;77;20121;-64
2021/06/11 07:11:07;;;;;;;;;;;;;;;20.49;69.12;99680.78;1792009;78;20117;-64
2021/06/11 07:13:34;;;;;;;;;;;;;;;20.42;69.23;99679.83;1823756;77;20173;-64
2021/06/11 07:16:01;;;;;;;;;;;;;;;20.40;69.26;99686.11;1814199;77;20428;-65
2021/06/11 07:18:28;;;;;;;;;;;;;;;20.42;69.47;99685.80;1822980;77;21102;-64
2021/06/11 07:20:55;;;;;;;;;;;;;;;20.43;69.25;99688.23;1823498;77;20117;-63
2021/06/11 07:23:22;;;;;;;;;;;;;;;20.47;69.31;99682.44;1823478;77;20125;-64
2021/06/11 07:25:48;;;;;;;;;;;;;;;20.53;69.30;99683.72;1823452;77;20414;-64
2021/06/11 07:28:16;;;;;;;;;;;;;;;20.60;69.28;99687.65;1819044;77;20141;-64
2021/06/11 07:30:43;;;;;;;;;;;;;;;20.72;69.10;99691.83;1823575;77;21103;-64
2021/06/11 07:33:10;;;;;;;;;;;;;;;20.78;68.77;99688.69;1823586;77;20141;-63
2021/06/11 07:35:37;;;;;;;;;;;;;;;20.83;68.85;99694.05;1823569;77;20149;-63
2021/06/11 07:38:05;;;;;;;;;;;;;;;20.91;68.52;99693.89;1792034;77;20184;-63
2021/06/11 07:40:32;;;;;;;;;;;;;;;20.93;68.21;99701.19;1823324;77;20078;-63
2021/06/11 07:43:00;;;;;;;;;;;;;;;20.95;68.38;99694.91;1823739;77;21120;-62
2021/06/11 07:45:27;;;;;;;;;;;;;;;20.99;68.49;99695.91;1823436;77;20077;-63
2021/06/11 07:47:53;;;;;;;;;;;;;;;;;;1823453;77;20078;-64
2021/06/11 07:50:20;;;;;;;;;;;;;;;21.04;68.21;99694.17;1818240;77;20148;-65
2021/06/11 07:52:47;;;;;;;;;;;;;;;21.10;68.15;99694.34;1823535;77;20424;-63
2021/06/11 07:55:15;;;;;;;;;;;;;;;21.17;68.07;99696.06;1823510;77;21123;-64
2021/06/11 07:57:42;;;;;;;;;;;;;;;21.27;67.60;99695.84;1814349;77;20066;-64
2021/06/11 08:00:09;;;;;;;;;;;;;;;21.44;67.57;99694.42;1813770;77;20492;-63
2021/06/11 08:02:42;;;;;;;;;;;;;;;21.62;67.46;99689.37;1822670;77;20077;-63
2021/06/11 08:05:10;;;;;;;;;;;;;;;21.78;67.29;99686.30;1823761;77;20148;-66
2021/06/11 08:07:37;;;;;;;;;;;;;;;21.80;66.48;99691.67;1823362;77;21115;-66
2021/06/11 08:10:05;;;;;;;;;;;;;;;21.75;66.28;99693.17;1818665;78;20148;-65
2021/06/11 08:12:33;;;;;;;;;;;;;;;21.67;65.95;99685.19;1823162;78;20109;-64
2021/06/11 08:15:00;;;;;;;;;;;;;;;21.58;65.80;99684.28;1823179;77;20168;-66
2021/06/11 08:17:27;;;;;;;;;;;;;;;21.53;66.16;99690.67;1823351;77;20077;-64
2021/06/11 08:19:54;;;;;;;;;;;;;;;21.48;65.83;99685.31;1823678;77;20587;-64
2021/06/11 08:22:21;;;;;;;;;;;;;;;21.38;66.06;99687.45;1823360;78;20456;-64
2021/06/11 08:24:47;;;;;;;;;;;;;;;21.26;66.13;99687.98;1823662;78;20106;-63
2021/06/11 08:27:14;;;;;;;;;;;;;;;21.19;66.92;99691.14;1818372;78;20170;-64
2021/06/11 08:29:41;;;;;;;;;;;;;;;21.16;67.18;99688.46;1822593;78;20197;-64
2021/06/11 08:32:08;;;;;;;;;;;;;;;21.14;67.26;99693.42;1812398;79;21123;-64
2021/06/11 08:34:37;;;;;;;;;;;;;;;21.10;67.24;99695.13;1811914;79;20719;-64
2021/06/11 08:37:05;;;;;;;;;;;;;;;21.05;66.91;99692.50;1811710;79;20467;-65
2021/06/11 08:39:32;;;;;;;;;;;;;;;20.98;67.13;99692.13;1811744;79;20078;-63
2021/06/11 08:41:58;;;;;;;;;;;;;;;20.98;67.19;99693.50;1811783;79;20085;-64
2021/06/11 08:44:27;;;;;;;;;;;;;;;20.99;67.08;99691.00;1812179;79;21803;-64
2021/06/11 08:46:54;;;;;;;;;;;;;;;20.99;66.90;99685.02;1811729;79;20070;-63
2021/06/11 08:49:24;;;;;;;;;;;;;;;20.98;66.57;99683.39;1812113;79;20130;-63
2021/06/11 08:51:59;;;;;;;;;;;;;;;20.95;66.53;99681.81;1805643;79;20512;-65
2021/06/11 08:54:28;;;;;;;;;;;;;;;20.94;66.45;99681.59;1811620;79;20075;-64
2021/06/11 08:56:55;;;;;;;;;;;;;;;20.91;66.23;99679.47;1809266;79;21150;-64
2021/06/11 08:59:22;;;;;;;;;;;;;;;20.87;66.18;99681.98;1812443;79;20149;-64
2021/06/11 09:01:50;;;;;;;;;;;;;;;20.84;66.21;99682.59;1812247;78;20110;-64
2021/06/11 09:04:20;;;;;;;;;;;;;;;20.85;66.73;99673.86;1804974;78;20429;-64
2021/06/11 09:06:46;;;;;;;;;;;;;;;20.84;66.58;99679.86;1809219;78;20086;-65
2021/06/11 09:09:13;;;;;;;;;;;;;;;20.80;66.17;99678.85;1812571;78;20777;-64
2021/06/11 09:11:40;;;;;;;;;;;;;;;20.77;66.24;99673.48;1812489;78;20126;-64
2021/06/11 09:14:08;;;;;;;;;;;;;;;20.76;66.28;99679.20;1811849;78;20090;-64
2021/06/11 09:16:46;;;;;;;;;;;;;;;20.79;66.63;99679.42;1812126;78;20145;-66
2021/06/11 09:19:18;;;;;;;;;;;;;;;20.86;65.77;99679.56;1811028;78;20158;-65
2021/06/11 09:21:43;;;;;;;;;;;;;;;20.93;65.63;99673.16;1812498;78;21828;-63
2021/06/11 09:24:32;;;;;;;;;;;;;;;21.07;65.62;99674.48;1812170;78;20197;-64
2021/06/11 09:27:04;;;;;;;;;;;;;;;21.23;65.37;99673.61;1811920;78;20231;-64
2021/06/11 09:29:43;;;;;;;;;;;;;;;21.46;65.54;99669.80;1812472;78;20105;-65
2021/06/11 09:32:29;;;;;;;;;;;;;;;21.71;64.19;99671.72;1809893;78;20479;-63
2021/06/11 09:34:57;;;;;;;;;;;;;;;21.96;64.18;99670.86;1780622;79;21757;-64
2021/06/11 09:37:29;;;;;;;;;;;;;;;22.11;62.13;99666.93;1812249;78;20137;-64
2021/06/11 09:40:03;;;;;;;;;;;;;;;22.19;61.20;99661.52;1812220;78;20186;-65
2021/06/11 09:42:35;;;;;;;;;;;;;;;22.23;61.01;99673.97;1812598;78;20125;-64
2021/06/11 09:45:05;;;;;;;;;;;;;;;22.28;60.50;99654.74;1809445;78;20420;-64
2021/06/11 09:47:33;;;;;;;;;;;;;;;22.29;60.90;99666.45;1812490;78;21136;-63
2021/06/11 09:50:09;;;;;;;;;;;;;;;22.34;61.67;99672.63;1812560;78;20129;-64
2021/06/11 09:53:00;;;;;;;;;;;;;;;22.50;61.10;99670.86;1812553;78;20090;-65
2021/06/11 09:55:43;;;;;;;;;;;;;;;22.67;60.79;99666.01;1810959;78;20078;-63
2021/06/11 09:58:13;;;;;;;;;;;;;;;22.71;59.98;99665.63;1812699;78;20156;-64
2021/06/11 10:00:42;;;;;;;;;;;;;;;22.67;58.93;99663.27;1812826;78;21127;-64
2021/06/11 10:03:17;;;;;;;;;;;;;;;22.57;58.73;99658.92;1812693;78;20453;-64
2021/06/11 10:05:45;;;;;;;;;;;;;;;22.44;59.33;99660.63;1806230;78;20094;-64
2021/06/11 10:08:12;;;;;;;;;;;;;;;22.40;59.76;99670.00;1802880;78;20134;-64
2021/06/11 10:10:40;;;;;;;;;;;;;;;22.38;59.96;99672.25;1810367;78;20157;-65
2021/06/11 10:13:06;;;;;;;;;;;;;;;22.32;60.19;99668.59;1812160;78;21119;-67
2021/06/11 10:15:33;;;;;;;;;;;;;;;22.21;60.17;99674.86;1812533;78;20429;-65
2021/06/11 10:18:00;;;;;;;;;;;;;;;22.12;60.65;99668.55;1812569;78;20567;-64
2021/06/11 10:20:26;;;;;;;;;;;;;;;22.15;61.11;99674.17;1812891;78;20138;-65
2021/06/11 10:22:53;;;;;;;;;;;;;;;22.23;61.20;99671.23;1790016;79;20090;-64
2021/06/11 10:25:20;;;;;;;;;;;;;;;22.38;61.37;99668.72;1802779;78;21733;-66
2021/06/11 10:27:46;;;;;;;;;;;;;;;22.54;60.74;99667.18;1812197;78;20421;-65
2021/06/11 10:30:14;;;;;;;;;;;;;;;22.69;60.11;99664.58;1790510;78;20113;-65
2021/06/11 10:32:47;;;;;;;;;;;;;;;22.81;59.95;99657.14;1823744;77;20601;-66
2021/06/11 10:35:16;;;;;;;;;;;;;;;22.89;59.25;99655.55;1793233;78;20117;-65
2021/06/11 10:37:44;;;;;;;;;;;;;;;22.88;57.94;99652.02;1815319;77;21068;-64
2021/06/11 10:40:21;;;;;;;;;;;;;;;22.73;58.33;99652.45;1818006;77;20110;-67
2021/06/11 10:42:48;;;;;;;;;;;;;;;22.60;58.59;99645.17;1820156;77;20094;-65
2021/06/11 10:45:35;;;;;;;;;;;;;;;22.57;57.98;99643.91;1823838;77;20436;-65
2021/06/11 10:48:02;;;;;;;;;;;;;;;22.52;57.44;99644.83;1823413;78;20132;-65
2021/06/11 10:50:33;;;;;;;;;;;;;;;22.40;56.67;99646.78;1792237;78;21145;-65
2021/06/11 10:53:12;;;;;;;;;;;;;;;22.32;56.26;99647.58;1823438;77;20106;-66
2021/06/11 10:55:47;;;;;;;;;;;;;;;22.20;56.02;99648.13;1809537;77;20089;-64
2021/06/11 10:58:17;;;;;;;;;;;;;;;22.12;56.56;99648.88;1823719;77;20082;-64
2021/06/11 11:00:44;;;;;;;;;;;;;;;22.11;56.86;99644.53;1819440;77;20094;-64
2021/06/11 11:03:27;;;;;;;;;;;;;;;22.11;57.34;99645.09;1822786;78;21187;-65
2021/06/11 11:05:54;;;;;;;;;;;;;;;22.12;57.41;99648.08;1820229;77;20070;-65
2021/06/11 11:08:21;;;;;;;;;;;;;;;22.07;57.32;99640.84;1823412;77;20148;-63
2021/06/11 11:10:52;;;;;;;;;;;;;;;22.02;57.21;99640.38;1815552;78;20106;-63
2021/06/11 11:13:28;;;;;;;;;;;;;;;21.93;57.12;99640.90;1819975;78;20463;-63
2021/06/11 11:15:57;;;;;;;;;;;;;;;21.89;57.36;99635.81;1823270;78;21119;-64
2021/06/11 11:18:36;;;;;;;;;;;;;;;21.83;57.73;99635.16;1823711;77;20113;-63
2021/06/11 11:21:23;;;;;;;;;;;;;;;21.78;58.30;99634.48;1823516;77;20117;-62
2021/06/11 11:23:51;;;;;;;;;;;;;;;21.80;59.07;99629.51;1823315;77;20454;-64
2021/06/11 11:26:19;;;;;;;;;;;;;;;21.80;58.70;99629.51;1823971;77;20122;-63
2021/06/11 11:28:46;;;;;;;;;;;;;;;21.80;59.04;99624.84;1818134;77;21155;-63
2021/06/11 11:31:14;;;;;;;;;;;;;;;21.81;57.98;99617.48;1791968;78;20090;-63
2021/06/11 11:33:41;;;;;;;;;;;;;;;21.81;57.35;99610.67;1790349;78;20432;-64
2021/06/11 11:36:08;;;;;;;;;;;;;;;21.82;57.95;99619.91;1822956;77;20330;-62
2021/06/11 11:38:35;;;;;;;;;;;;;;;21.85;58.19;99612.45;1823448;77;20121;-63
2021/06/11 11:41:01;;;;;;;;;;;;;;;21.87;58.31;99614.88;1823208;78;21124;-63
2021/06/11 11:43:28;;;;;;;;;;;;;;;21.87;58.70;99614.30;1823217;78;20117;-64
2021/06/11 11:45:55;;;;;;;;;;;;;;;21.87;58.97;99610.21;1822482;78;20137;-63
2021/06/11 11:48:24;;;;;;;;;;;;;;;21.88;59.13;99618.65;1817716;78;20185;-63
2021/06/11 11:50:50;;;;;;;;;;;;;;;21.94;58.81;99610.35;1821006;78;20727;-63
2021/06/11 11:53:17;;;;;;;;;;;;;;;21.99;58.87;99619.75;1791412;78;21121;-63
2021/06/11 11:55:44;;;;;;;;;;;;;;;21.97;57.90;99618.70;1823272;78;20428;-64
2021/06/11 11:58:11;;;;;;;;;;;;;;;21.92;58.66;99616.09;1823245;78;20097;-62
2021/06/11 12:00:38;;;;;;;;;;;;;;;21.92;58.93;99620.19;1826840;77;20114;-63
2021/06/11 12:03:05;;;;;;;;;;;;;;;21.98;59.21;99619.50;1822878;77;20129;-63
2021/06/11 12:05:32;;;;;;;;;;;;;;;22.10;59.45;99620.28;1790443;78;21055;-63
2021/06/11 12:07:58;;;;;;;;;;;;;;;22.22;59.18;99616.42;1823315;77;20129;-63
2021/06/11 12:10:26;;;;;;;;;;;;;;;22.30;58.69;99621.67;1822075;77;20093;-63
2021/06/11 12:12:53;;;;;;;;;;;;;;;22.33;58.42;99621.86;1822875;77;20144;-63
2021/06/11 12:15:20;;;;;;;;;;;;;;;22.34;58.14;99614.50;1823929;77;20078;-64
2021/06/11 12:17:46;;;;;;;;;;;;;;;22.31;57.98;99626.81;1821438;77;21113;-64
2021/06/11 12:20:14;;;;;;;;;;;;;;;22.25;58.13;99623.98;1822677;77;20066;-62
2021/06/11 12:22:41;;;;;;;;;;;;;;;22.17;58.50;99624.73;1823598;77;20106;-63
2021/06/11 12:25:09;;;;;;;;;;;;;;;22.05;58.73;99623.41;1788343;77;20079;-63
2021/06/11 12:27:36;;;;;;;;;;;;;;;21.96;59.15;99621.17;1823667;77;20120;-63
2021/06/11 12:30:03;;;;;;;;;;;;;;;21.89;59.26;99619.45;1828874;77;21115;-62
2021/06/11 12:32:30;;;;;;;;;;;;;;;21.78;59.45;99614.81;1823246;77;20109;-63
2021/06/11 12:34:58;;;;;;;;;;;;;;;21.69;59.32;99613.97;1823517;77;20101;-63
2021/06/11 12:37:24;;;;;;;;;;;;;;;21.61;59.38;99620.98;1789030;77;20115;-63
2021/06/11 12:39:53;;;;;;;;;;;;;;;21.55;59.57;99623.55;1826944;77;20094;-64
2021/06/11 12:42:21;;;;;;;;;;;;;;;21.52;59.58;99620.91;1823005;77;21208;-63
2021/06/11 12:44:48;;;;;;;;;;;;;;;21.55;59.65;99607.77;1822869;77;20435;-62
2021/06/11 12:47:16;;;;;;;;;;;;;;;21.53;59.03;99613.53;1822999;77;20093;-67
2021/06/11 12:49:43;;;;;;;;;;;;;;;21.51;59.04;99605.66;1823850;77;20121;-64
2021/06/11 12:52:10;;;;;;;;;;;;;;;21.50;59.09;99609.50;1823424;77;20165;-64
2021/06/11 12:54:37;;;;;;;;;;;;;;;21.49;59.13;99603.75;1820155;77;20994;-63